Time;durP1;ratioP1;P1;durP2;ratioP2;P2;SDS_P1;SDS_P2;PMS_P1;PMS_P2;Temp;Humidity;BMP_temperature;BMP_pressure;BME280_temperature;BME280_humidity;BME280_pressure;Samples;Min_cycle;Max_cycle;Signal;HPM_P1;HPM_P2
2022/05/21 00:02:11;;;;;;;30.63;4.75;;;;;;;;;;4989476;28;20272;-70
2022/05/21 00:04:42;;;;;;;28.27;4.57;;;;;;;;;;4989286;28;20849;-69
2022/05/21 00:07:10;;;;;;;28.23;4.63;;;;;;;;;;4986523;28;20140;-69
2022/05/21 00:09:35;;;;;;;31.55;5.88;;;;;;;;;;4987314;28;20041;-71
2022/05/21 00:12:01;;;;;;;37.10;5.40;;;;;;;;;;4973041;28;20449;-68
2022/05/21 00:14:26;;;;;;;35.25;4.68;;;;;;;;;;4971624;28;22008;-69
2022/05/21 00:16:51;;;;;;;30.42;5.45;;;;;;;;;;4971082;28;20488;-69
2022/05/21 00:19:16;;;;;;;25.98;4.72;;;;;;;;;;4969366;28;20022;-69
2022/05/21 00:21:42;;;;;;;30.20;4.90;;;;;;;;;;4969774;28;21660;-69
2022/05/21 00:24:10;;;;;;;34.97;5.50;;;;;;;;;;4971035;28;20056;-69
2022/05/21 00:26:35;;;;;;;31.88;5.38;;;;;;;;;;4970138;28;20109;-66
2022/05/21 00:29:00;;;;;;;29.55;5.20;;;;;;;;;;4970139;28;20060;-71
2022/05/21 00:31:26;;;;;;;28.50;4.78;;;;;;;;;;4969400;28;20065;-70
2022/05/21 00:33:51;;;;;;;38.55;5.18;;;;;;;;;;4968967;28;20132;-71
2022/05/21 00:36:16;;;;;;;25.95;4.85;;;;;;;;;;4970899;28;20060;-71
2022/05/21 00:38:42;;;;;;;31.15;6.13;;;;;;;;;;4970660;28;20030;-69
2022/05/21 00:41:08;;;;;;;33.70;5.75;;;;;;;;;;4970014;28;20060;-70
2022/05/21 00:44:00;;;;;;;35.97;6.35;;;;;;;;;;4972315;28;20030;-70
2022/05/21 00:46:27;;;;;;;29.80;5.32;;;;;;;;;;4977556;28;20048;-68
2022/05/21 00:48:55;;;;;;;30.75;5.15;;;;;;;;;;4986583;28;20830;-67
2022/05/21 00:51:23;;;;;;;32.90;6.20;;;;;;;;;;4988058;28;20484;-69
2022/05/21 00:53:50;;;;;;;38.45;6.82;;;;;;;;;;4975641;28;20060;-70
2022/05/21 00:56:18;;;;;;;27.35;5.40;;;;;;;;;;4989745;28;20029;-69
2022/05/21 01:01:31;;;;;;;30.80;6.00;;;;;;;;;;4988917;28;20044;-69
2022/05/21 01:03:56;;;;;;;38.80;6.38;;;;;;;;;;5004976;28;20357;-69
2022/05/21 01:06:29;;;;;;;35.67;6.18;;;;;;;;;;4987305;28;20131;-67
2022/05/21 01:08:54;;;;;;;37.45;6.53;;;;;;;;;;4989870;28;20042;-69
2022/05/21 01:11:20;;;;;;;35.28;6.53;;;;;;;;;;4986150;28;20069;-70
2022/05/21 01:13:46;;;;;;;37.33;6.20;;;;;;;;;;5001531;28;20396;-69
2022/05/21 01:16:13;;;;;;;38.33;6.03;;;;;;;;;;4988665;28;20364;-70
2022/05/21 01:18:38;;;;;;;38.53;6.00;;;;;;;;;;4987681;28;20073;-69
2022/05/21 01:21:04;;;;;;;40.75;6.65;;;;;;;;;;5000264;28;20456;-69
2022/05/21 01:23:31;;;;;;;40.53;7.05;;;;;;;;;;4987438;28;20091;-72
2022/05/21 01:26:00;;;;;;;39.33;6.38;;;;;;;;;;4995914;28;20045;-68
2022/05/21 01:28:27;;;;;;;37.13;6.90;;;;;;;;;;4972532;28;20453;-70
2022/05/21 01:30:54;;;;;;;42.80;6.70;;;;;;;;;;4968932;28;20484;-70
2022/05/21 01:33:24;;;;;;;36.67;6.25;;;;;;;;;;4967976;28;20038;-72
2022/05/21 01:35:50;;;;;;;44.25;6.47;;;;;;;;;;4960248;28;20391;-71
2022/05/21 01:38:17;;;;;;;42.90;6.20;;;;;;;;;;4967463;28;20161;-71
2022/05/21 01:40:42;;;;;;;39.58;6.30;;;;;;;;;;4975525;28;20318;-69
2022/05/21 01:45:52;;;;;;;37.75;6.28;;;;;;;;;;4969165;28;20060;-71
2022/05/21 01:48:21;;;;;;;33.63;6.05;;;;;;;;;;4969080;28;20416;-73
2022/05/21 01:50:46;;;;;;;27.67;5.60;;;;;;;;;;4969581;28;20136;-71
2022/05/21 01:53:12;;;;;;;35.00;5.90;;;;;;;;;;4973349;28;20092;-72
2022/05/21 01:55:37;;;;;;;37.33;5.93;;;;;;;;;;4965851;28;20042;-71
2022/05/21 01:58:05;;;;;;;41.78;6.00;;;;;;;;;;4970187;28;20034;-71
2022/05/21 02:00:30;;;;;;;39.42;6.40;;;;;;;;;;4971517;28;20553;-72
2022/05/21 02:02:56;;;;;;;36.42;6.00;;;;;;;;;;4968215;28;20139;-72
2022/05/21 02:05:22;;;;;;;31.10;5.25;;;;;;;;;;4967380;28;20038;-71
2022/05/21 02:07:47;;;;;;;39.50;6.10;;;;;;;;;;4950147;28;20183;-69
2022/05/21 02:10:13;;;;;;;40.75;5.85;;;;;;;;;;4967057;28;20538;-71
2022/05/21 02:12:39;;;;;;;47.20;6.65;;;;;;;;;;4965994;28;20082;-71
2022/05/21 02:15:05;;;;;;;32.63;6.32;;;;;;;;;;4968001;28;20030;-72
2022/05/21 02:17:30;;;;;;;38.88;6.10;;;;;;;;;;4957149;28;20100;-72
2022/05/21 02:19:56;;;;;;;32.47;5.60;;;;;;;;;;4954131;28;20294;-72
2022/05/21 02:22:21;;;;;;;38.28;6.07;;;;;;;;;;4981040;28;20486;-72
2022/05/21 02:24:47;;;;;;;42.30;6.88;;;;;;;;;;4967218;28;20338;-70
2022/05/21 02:27:13;;;;;;;40.05;6.13;;;;;;;;;;4968400;28;20592;-72
2022/05/21 02:29:41;;;;;;;36.75;6.15;;;;;;;;;;4965569;28;20442;-71
2022/05/21 02:32:07;;;;;;;37.85;5.78;;;;;;;;;;4967275;28;20038;-72
2022/05/21 02:34:32;;;;;;;35.42;6.28;;;;;;;;;;4960804;28;20609;-73
2022/05/21 02:39:42;;;;;;;26.25;5.57;;;;;;;;;;4983498;28;20041;-72
2022/05/21 02:44:51;;;;;;;36.38;5.65;;;;;;;;;;4964879;28;20597;-71
2022/05/21 02:47:17;;;;;;;41.17;6.05;;;;;;;;;;4970900;28;20294;-70
2022/05/21 02:49:42;;;;;;;46.83;6.43;;;;;;;;;;4968058;28;20150;-72
2022/05/21 02:52:07;;;;;;;41.53;6.47;;;;;;;;;;4967767;28;20046;-71
2022/05/21 02:54:35;;;;;;;36.97;6.05;;;;;;;;;;4967087;28;20091;-71
2022/05/21 02:57:00;;;;;;;35.30;5.90;;;;;;;;;;4952811;28;20037;-72
2022/05/21 02:59:28;;;;;;;42.70;6.18;;;;;;;;;;4954067;28;20625;-70
2022/05/21 03:01:53;;;;;;;32.75;6.00;;;;;;;;;;4978940;28;20067;-71
2022/05/21 03:04:19;;;;;;;39.97;6.20;;;;;;;;;;5003124;28;20036;-72
2022/05/21 03:06:45;;;;;;;37.65;6.68;;;;;;;;;;4986845;28;20173;-72
2022/05/21 03:11:56;;;;;;;32.05;5.40;;;;;;;;;;4988279;28;20125;-72
2022/05/21 03:14:21;;;;;;;34.03;5.82;;;;;;;;;;4986545;28;20041;-76
2022/05/21 03:16:49;;;;;;;37.00;4.85;;;;;;;;;;4967901;28;20350;-73
2022/05/21 03:19:14;;;;;;;33.55;5.25;;;;;;;;;;4967365;28;20207;-72
2022/05/21 03:21:40;;;;;;;27.83;5.13;;;;;;;;;;4962962;28;20383;-72
2022/05/21 03:24:05;;;;;;;37.47;5.72;;;;;;;;;;4972416;28;20296;-74
2022/05/21 03:26:31;;;;;;;30.83;5.50;;;;;;;;;;4967233;28;20036;-72
2022/05/21 03:28:57;;;;;;;31.02;5.35;;;;;;;;;;4971852;28;20445;-73
2022/05/21 03:31:23;;;;;;;36.05;5.90;;;;;;;;;;4970333;28;20616;-71
2022/05/21 03:33:48;;;;;;;31.77;5.15;;;;;;;;;;4968328;28;20038;-73
2022/05/21 03:36:14;;;;;;;31.77;6.18;;;;;;;;;;4971137;28;20684;-73
2022/05/21 03:38:42;;;;;;;35.42;5.38;;;;;;;;;;4972552;28;20053;-72
2022/05/21 03:41:10;;;;;;;39.80;5.57;;;;;;;;;;4975520;28;20128;-70
2022/05/21 03:43:36;;;;;;;25.45;4.72;;;;;;;;;;4972566;28;20162;-72
2022/05/21 03:46:04;;;;;;;34.40;4.90;;;;;;;;;;4970314;28;20037;-73
2022/05/21 03:48:31;;;;;;;37.45;5.68;;;;;;;;;;4967789;28;20487;-72
2022/05/21 03:50:59;;;;;;;31.25;5.75;;;;;;;;;;4969827;28;20216;-73
2022/05/21 03:53:24;;;;;;;25.35;4.85;;;;;;;;;;4953937;28;20095;-72
2022/05/21 03:55:51;;;;;;;30.55;5.32;;;;;;;;;;4968516;28;20099;-73
2022/05/21 03:58:16;;;;;;;24.85;4.97;;;;;;;;;;4971103;28;20038;-69
2022/05/21 04:00:45;;;;;;;26.63;5.10;;;;;;;;;;4969002;28;20117;-72
2022/05/21 04:03:10;;;;;;;32.03;5.07;;;;;;;;;;4969846;28;20061;-73
2022/05/21 04:05:36;;;;;;;32.70;5.93;;;;;;;;;;4969563;28;20772;-73
2022/05/21 04:08:02;;;;;;;33.22;5.50;;;;;;;;;;4955372;28;22183;-70
2022/05/21 04:10:27;;;;;;;25.75;5.00;;;;;;;;;;4969476;28;20179;-71
2022/05/21 04:12:55;;;;;;;31.27;4.57;;;;;;;;;;4970295;28;20136;-72
2022/05/21 04:15:20;;;;;;;21.20;4.45;;;;;;;;;;4966515;28;20362;-71
2022/05/21 04:17:48;;;;;;;26.02;4.63;;;;;;;;;;4969241;28;20889;-73
2022/05/21 04:20:14;;;;;;;29.58;5.00;;;;;;;;;;4968334;28;20470;-73
2022/05/21 04:22:39;;;;;;;29.95;5.20;;;;;;;;;;4972034;28;20136;-71
2022/05/21 04:25:08;;;;;;;26.42;4.32;;;;;;;;;;4967095;28;20064;-72
2022/05/21 04:27:34;;;;;;;28.10;5.25;;;;;;;;;;4974246;28;20520;-73
2022/05/21 04:30:00;;;;;;;29.67;5.35;;;;;;;;;;4973777;28;20331;-72
2022/05/21 04:32:25;;;;;;;24.25;4.55;;;;;;;;;;4971061;28;20042;-72
2022/05/21 04:34:50;;;;;;;26.27;4.32;;;;;;;;;;4970577;28;20037;-70
2022/05/21 04:37:16;;;;;;;29.08;5.35;;;;;;;;;;4968308;28;20411;-71
2022/05/21 04:39:41;;;;;;;28.52;5.03;;;;;;;;;;4953632;28;20161;-74
2022/05/21 04:42:06;;;;;;;29.48;5.25;;;;;;;;;;4961339;28;20042;-73
2022/05/21 04:44:34;;;;;;;23.30;4.72;;;;;;;;;;4970719;28;20037;-72
2022/05/21 04:46:59;;;;;;;25.65;4.60;;;;;;;;;;4970007;28;20038;-72
2022/05/21 04:49:24;;;;;;;24.70;4.40;;;;;;;;;;4972734;28;20041;-74
2022/05/21 04:51:50;;;;;;;29.63;5.07;;;;;;;;;;4965973;28;21824;-73
2022/05/21 04:54:15;;;;;;;28.40;4.30;;;;;;;;;;4971634;28;20076;-71
2022/05/21 04:56:40;;;;;;;25.35;4.45;;;;;;;;;;4970845;28;20037;-73
2022/05/21 04:59:10;;;;;;;24.30;4.32;;;;;;;;;;4975747;28;20847;-71
2022/05/21 05:01:36;;;;;;;26.15;4.78;;;;;;;;;;4973982;28;20034;-73
2022/05/21 05:04:02;;;;;;;28.20;4.30;;;;;;;;;;4974038;28;20033;-72
2022/05/21 05:06:27;;;;;;;22.20;4.78;;;;;;;;;;4972661;28;20041;-71
2022/05/21 05:08:52;;;;;;;32.40;4.63;;;;;;;;;;4968838;28;20041;-72
2022/05/21 05:11:18;;;;;;;27.83;4.07;;;;;;;;;;4987459;28;20052;-74
2022/05/21 05:13:43;;;;;;;23.98;4.57;;;;;;;;;;4976827;28;20710;-72
2022/05/21 05:16:09;;;;;;;23.27;4.22;;;;;;;;;;4975099;28;20044;-72
2022/05/21 05:18:36;;;;;;;25.73;4.35;;;;;;;;;;4971790;28;20103;-71
2022/05/21 05:21:02;;;;;;;24.95;4.45;;;;;;;;;;4968565;28;20034;-73
2022/05/21 05:23:27;;;;;;;25.13;4.93;;;;;;;;;;4955792;28;20041;-71
2022/05/21 05:25:53;;;;;;;24.92;4.47;;;;;;;;;;4974243;28;20042;-72
2022/05/21 05:28:20;;;;;;;23.15;4.03;;;;;;;;;;4968884;28;20038;-70
2022/05/21 05:30:47;;;;;;;24.70;4.90;;;;;;;;;;4971480;28;20050;-73
2022/05/21 05:33:12;;;;;;;26.58;4.47;;;;;;;;;;4973493;28;20701;-73
2022/05/21 05:35:38;;;;;;;23.83;4.32;;;;;;;;;;4985757;28;20117;-73
2022/05/21 05:38:05;;;;;;;26.98;4.93;;;;;;;;;;4973647;28;20033;-72
2022/05/21 05:40:32;;;;;;;28.17;4.75;;;;;;;;;;4971834;28;20573;-74
2022/05/21 05:43:00;;;;;;;21.90;4.30;;;;;;;;;;4965906;28;20593;-70
2022/05/21 05:45:29;;;;;;;23.65;4.43;;;;;;;;;;4958338;28;20030;-72
2022/05/21 05:47:54;;;;;;;26.52;4.50;;;;;;;;;;4967972;28;20053;-71
2022/05/21 05:50:20;;;;;;;22.05;4.47;;;;;;;;;;4967280;28;20093;-72
2022/05/21 05:52:45;;;;;;;21.27;4.60;;;;;;;;;;4968231;28;20049;-74
2022/05/21 05:55:11;;;;;;;23.90;4.28;;;;;;;;;;4977623;28;20036;-74
2022/05/21 05:57:37;;;;;;;22.88;4.55;;;;;;;;;;4989421;28;20052;-73
2022/05/21 06:00:04;;;;;;;20.30;4.10;;;;;;;;;;4965875;28;20041;-73
2022/05/21 06:05:15;;;;;;;21.73;3.80;;;;;;;;;;4976074;28;22461;-73
2022/05/21 06:07:41;;;;;;;21.42;4.32;;;;;;;;;;4988334;28;20115;-73
2022/05/21 06:10:07;;;;;;;22.98;4.38;;;;;;;;;;4970488;28;20041;-74
2022/05/21 06:12:32;;;;;;;17.67;4.22;;;;;;;;;;4970281;28;20048;-72
2022/05/21 06:14:58;;;;;;;19.35;3.95;;;;;;;;;;4963789;28;20052;-71
2022/05/21 06:17:23;;;;;;;22.35;4.30;;;;;;;;;;4986132;28;20918;-74
2022/05/21 06:19:49;;;;;;;18.05;3.80;;;;;;;;;;5005019;28;20065;-74
2022/05/21 06:22:14;;;;;;;21.63;3.80;;;;;;;;;;4981607;28;21082;-73
2022/05/21 06:24:39;;;;;;;22.52;3.72;;;;;;;;;;4983209;28;20680;-72
2022/05/21 06:27:05;;;;;;;22.45;4.15;;;;;;;;;;4989865;28;20045;-73
2022/05/21 06:29:31;;;;;;;21.10;3.95;;;;;;;;;;4988548;28;20622;-71
2022/05/21 06:31:57;;;;;;;27.10;4.43;;;;;;;;;;4991627;28;20033;-70
2022/05/21 06:34:25;;;;;;;19.63;4.32;;;;;;;;;;4994707;28;20029;-70
2022/05/21 06:36:50;;;;;;;20.63;4.15;;;;;;;;;;4993042;28;20027;-70
2022/05/21 06:39:18;;;;;;;25.50;4.78;;;;;;;;;;4989085;28;20033;-71
2022/05/21 06:41:43;;;;;;;21.88;4.40;;;;;;;;;;4988784;28;20029;-72
2022/05/21 06:44:09;;;;;;;20.25;4.05;;;;;;;;;;4983042;28;20822;-69
2022/05/21 06:46:34;;;;;;;24.92;4.82;;;;;;;;;;4988684;28;20156;-72
2022/05/21 06:49:00;;;;;;;21.48;4.53;;;;;;;;;;4987710;28;20032;-69
2022/05/21 06:51:28;;;;;;;20.15;3.92;;;;;;;;;;4988242;28;20049;-69
2022/05/21 06:53:54;;;;;;;26.40;4.82;;;;;;;;;;4961608;28;20182;-70
2022/05/21 06:56:19;;;;;;;18.95;4.32;;;;;;;;;;4987450;28;20064;-68
2022/05/21 06:58:50;;;;;;;22.02;4.65;;;;;;;;;;4986257;28;20079;-68
2022/05/21 07:01:16;;;;;;;24.60;4.57;;;;;;;;;;4985704;28;20038;-69
2022/05/21 07:03:41;;;;;;;18.13;3.88;;;;;;;;;;4982681;28;20080;-71
2022/05/21 07:08:50;;;;;;;17.30;3.53;;;;;;;;;;4965621;28;20034;-70
2022/05/21 07:11:16;;;;;;;24.85;4.47;;;;;;;;;;4968429;28;20116;-69
2022/05/21 07:13:41;;;;;;;22.08;4.50;;;;;;;;;;4964479;28;20044;-71
2022/05/21 07:16:07;;;;;;;23.33;4.38;;;;;;;;;;4969868;28;20739;-69
2022/05/21 07:18:32;;;;;;;20.65;4.05;;;;;;;;;;4942300;28;20056;-69
2022/05/21 07:20:58;;;;;;;19.80;4.13;;;;;;;;;;4966671;28;20167;-69
2022/05/21 07:23:26;;;;;;;20.52;3.80;;;;;;;;;;4969447;28;20458;-69
2022/05/21 07:25:52;;;;;;;24.70;4.20;;;;;;;;;;4964065;28;20041;-70
2022/05/21 07:28:18;;;;;;;24.35;4.82;;;;;;;;;;4968124;28;20065;-71
2022/05/21 07:30:46;;;;;;;19.88;3.92;;;;;;;;;;4963217;28;20168;-69
2022/05/21 07:33:14;;;;;;;16.98;4.05;;;;;;;;;;4975223;28;20615;-69
2022/05/21 07:35:39;;;;;;;19.48;4.07;;;;;;;;;;4968206;28;20133;-69
2022/05/21 07:38:05;;;;;;;23.42;3.90;;;;;;;;;;4965489;28;20469;-69
2022/05/21 07:40:33;;;;;;;23.52;4.30;;;;;;;;;;4970004;28;20038;-72
2022/05/21 07:42:59;;;;;;;19.65;4.50;;;;;;;;;;4972475;28;20453;-75
2022/05/21 07:45:26;;;;;;;25.08;4.30;;;;;;;;;;4970961;28;20038;-73
2022/05/21 07:47:52;;;;;;;22.48;4.47;;;;;;;;;;4965537;28;20034;-72
2022/05/21 07:50:20;;;;;;;24.08;4.13;;;;;;;;;;4973458;28;21092;-71
2022/05/21 07:52:48;;;;;;;24.70;3.88;;;;;;;;;;4974587;28;20046;-73
2022/05/21 07:55:14;;;;;;;17.15;3.75;;;;;;;;;;4971978;28;20455;-73
2022/05/21 07:57:39;;;;;;;25.67;4.18;;;;;;;;;;4970221;28;20042;-74
2022/05/21 08:00:05;;;;;;;21.55;4.47;;;;;;;;;;4969307;28;20033;-73
2022/05/21 08:02:32;;;;;;;20.45;4.15;;;;;;;;;;4969734;28;20077;-73
2022/05/21 08:04:57;;;;;;;18.30;4.03;;;;;;;;;;4989291;28;20132;-73
2022/05/21 08:07:22;;;;;;;18.55;4.22;;;;;;;;;;4994555;28;20029;-73
2022/05/21 08:09:47;;;;;;;21.95;4.32;;;;;;;;;;4987867;28;20057;-73
2022/05/21 08:12:14;;;;;;;24.40;4.85;;;;;;;;;;4986229;28;20945;-72
2022/05/21 08:14:42;;;;;;;16.40;4.22;;;;;;;;;;4993804;28;20171;-72
2022/05/21 08:17:10;;;;;;;22.02;4.45;;;;;;;;;;4993081;28;20240;-73
2022/05/21 08:19:36;;;;;;;18.98;3.78;;;;;;;;;;4991035;28;20037;-72
2022/05/21 08:27:35;;;;;;;22.25;4.50;;;;;;;;;;4973429;28;20042;-72
2022/05/21 08:30:00;;;;;;;21.98;4.20;;;;;;;;;;4979211;28;20150;-73
2022/05/21 08:32:25;;;;;;;18.42;3.95;;;;;;;;;;4967887;28;20604;-73
2022/05/21 08:34:52;;;;;;;26.38;4.95;;;;;;;;;;4974152;28;20049;-71
2022/05/21 08:37:20;;;;;;;20.33;4.35;;;;;;;;;;4966469;28;20472;-73
2022/05/21 08:39:45;;;;;;;23.35;4.63;;;;;;;;;;4940440;28;20112;-74
2022/05/21 08:42:15;;;;;;;18.05;4.00;;;;;;;;;;4966073;28;20038;-74
2022/05/21 08:44:44;;;;;;;18.10;3.75;;;;;;;;;;4986977;28;20034;-74
2022/05/21 08:47:15;;;;;;;26.48;4.72;;;;;;;;;;4963718;28;20030;-75
2022/05/21 08:49:51;;;;;;;22.55;4.65;;;;;;;;;;4980343;28;20041;-73
2022/05/21 08:52:22;;;;;;;20.27;4.05;;;;;;;;;;4972502;28;20038;-74
2022/05/21 08:54:49;;;;;;;21.40;4.35;;;;;;;;;;4982025;28;20034;-75
2022/05/21 08:57:16;;;;;;;22.10;4.45;;;;;;;;;;4978946;28;20232;-74
2022/05/21 08:59:45;;;;;;;22.38;4.43;;;;;;;;;;4972860;28;20077;-75
2022/05/21 09:02:13;;;;;;;21.42;4.45;;;;;;;;;;4975372;28;20095;-75
2022/05/21 09:04:38;;;;;;;19.17;4.15;;;;;;;;;;4961469;28;20088;-74
2022/05/21 09:07:08;;;;;;;20.63;4.07;;;;;;;;;;4954109;28;20037;-75
2022/05/21 09:09:36;;;;;;;24.73;4.88;;;;;;;;;;4972171;28;20034;-74
2022/05/21 09:12:18;;;;;;;28.73;4.57;;;;;;;;;;4971920;28;22162;-74
2022/05/21 09:14:45;;;;;;;18.13;3.90;;;;;;;;;;4971858;28;20200;-73
2022/05/21 09:17:15;;;;;;;23.30;4.32;;;;;;;;;;4973867;28;20100;-73
2022/05/21 09:19:43;;;;;;;23.10;3.60;;;;;;;;;;4974222;28;20040;-74
2022/05/21 09:22:10;;;;;;;22.90;4.53;;;;;;;;;;4972214;28;20128;-72
2022/05/21 09:24:36;;;;;;;23.25;4.35;;;;;;;;;;4977293;28;20073;-73
2022/05/21 09:27:02;;;;;;;22.10;3.90;;;;;;;;;;4987624;28;20084;-73
2022/05/21 09:29:31;;;;;;;21.98;3.67;;;;;;;;;;5001146;28;20077;-72
2022/05/21 09:31:57;;;;;;;17.80;4.25;;;;;;;;;;5000592;28;20033;-72
2022/05/21 09:34:35;;;;;;;27.13;4.90;;;;;;;;;;4977151;28;20283;-73
2022/05/21 09:37:01;;;;;;;25.45;4.07;;;;;;;;;;4968456;28;20103;-74
2022/05/21 09:39:30;;;;;;;18.75;4.10;;;;;;;;;;4966963;28;20333;-73
2022/05/21 09:45:26;;;;;;;20.13;3.90;;;;;;;;;;4966170;28;20022;-73
2022/05/21 09:48:12;;;;;;;18.75;4.20;;;;;;;;;;4968055;28;20042;-72
2022/05/21 09:50:56;;;;;;;18.45;3.72;;;;;;;;;;4971078;28;20042;-72
2022/05/21 09:53:25;;;;;;;21.02;4.55;;;;;;;;;;4981525;28;20663;-71
2022/05/21 09:55:58;;;;;;;21.40;4.57;;;;;;;;;;4980636;28;20123;-73
2022/05/21 09:58:24;;;;;;;23.00;4.07;;;;;;;;;;4975005;28;20037;-75
2022/05/21 10:00:54;;;;;;;22.50;3.97;;;;;;;;;;4966548;28;20038;-72
2022/05/21 10:03:34;;;;;;;24.92;4.07;;;;;;;;;;4967007;28;20848;-73
2022/05/21 10:06:00;;;;;;;26.63;4.90;;;;;;;;;;4966522;28;20038;-73
2022/05/21 10:11:16;;;;;;;23.08;4.20;;;;;;;;;;4966042;28;20049;-72
2022/05/21 10:13:47;;;;;;;21.08;4.22;;;;;;;;;;4968545;28;20263;-72
2022/05/21 10:16:33;;;;;;;26.00;4.30;;;;;;;;;;4967084;28;20617;-72
2022/05/21 10:19:19;;;;;;;27.17;4.82;;;;;;;;;;4967387;28;20045;-74
2022/05/21 10:21:47;;;;;;;20.23;4.18;;;;;;;;;;4979892;28;20136;-70
2022/05/21 10:24:28;;;;;;;28.38;4.35;;;;;;;;;;4968697;28;20923;-73
2022/05/21 10:26:58;;;;;;;20.15;4.18;;;;;;;;;;4969264;28;20034;-73
2022/05/21 10:29:27;;;;;;;25.90;4.57;;;;;;;;;;4961323;28;20589;-71
2022/05/21 10:32:02;;;;;;;19.92;4.07;;;;;;;;;;4964018;28;20565;-77
2022/05/21 10:34:27;;;;;;;20.20;4.13;;;;;;;;;;4965123;28;20769;-66
2022/05/21 10:36:56;;;;;;;20.13;4.20;;;;;;;;;;4966100;28;20063;-69
2022/05/21 10:39:33;;;;;;;23.27;4.40;;;;;;;;;;4968613;28;20037;-73
2022/05/21 10:42:22;;;;;;;24.70;4.40;;;;;;;;;;4989037;28;20026;-70
2022/05/21 10:44:47;;;;;;;24.52;4.53;;;;;;;;;;4971711;28;20713;-74
2022/05/21 10:47:38;;;;;;;22.50;4.13;;;;;;;;;;4992443;28;20029;-72
2022/05/21 10:50:08;;;;;;;19.65;4.50;;;;;;;;;;4986656;28;20084;-69
2022/05/21 10:52:52;;;;;;;23.05;4.45;;;;;;;;;;4988477;28;20898;-70
2022/05/21 10:55:20;;;;;;;22.67;4.05;;;;;;;;;;4986127;28;20167;-71
2022/05/21 10:57:53;;;;;;;26.33;4.88;;;;;;;;;;4987483;28;20809;-71
2022/05/21 11:00:25;;;;;;;20.63;3.92;;;;;;;;;;4987010;28;20033;-71
2022/05/21 11:03:10;;;;;;;23.15;4.55;;;;;;;;;;4966972;28;20057;-73
2022/05/21 11:05:46;;;;;;;27.40;4.30;;;;;;;;;;4964715;28;20068;-73
2022/05/21 11:08:19;;;;;;;25.15;4.45;;;;;;;;;;4971033;28;20034;-71
2022/05/21 11:10:46;;;;;;;24.27;5.05;;;;;;;;;;4937370;28;20046;-69
2022/05/21 11:13:17;;;;;;;23.15;4.53;;;;;;;;;;4963281;28;20033;-70
2022/05/21 11:15:48;;;;;;;25.50;4.70;;;;;;;;;;4954904;28;20033;-71
2022/05/21 11:18:17;;;;;;;23.05;4.82;;;;;;;;;;4973779;28;20044;-72
2022/05/21 11:20:54;;;;;;;23.05;4.10;;;;;;;;;;4988760;28;20320;-69
2022/05/21 11:23:26;;;;;;;25.23;5.00;;;;;;;;;;4986310;28;20048;-70
2022/05/21 11:26:08;;;;;;;20.00;4.25;;;;;;;;;;4983419;28;20037;-68
2022/05/21 11:28:53;;;;;;;22.10;4.93;;;;;;;;;;4988184;28;20084;-71
2022/05/21 11:37:19;;;;;;;22.40;4.90;;;;;;;;;;4979045;28;20045;-70
2022/05/21 11:39:39;;;;;;;23.38;4.18;;;;;;;;;;4976794;28;20067;-68
2022/05/21 11:42:07;;;;;;;21.50;4.77;;;;;;;;;;4984478;28;20302;-73
2022/05/21 11:44:56;;;;;;;23.33;4.53;;;;;;;;;;4985261;28;20112;-71
2022/05/21 11:47:21;;;;;;;22.67;4.00;;;;;;;;;;4991553;28;20845;-70
2022/05/21 11:50:04;;;;;;;21.38;4.38;;;;;;;;;;4978600;28;20026;-73
2022/05/21 11:52:35;;;;;;;17.17;4.00;;;;;;;;;;5003568;28;20071;-72
2022/05/21 11:55:02;;;;;;;18.70;3.60;;;;;;;;;;4988643;28;20037;-68
2022/05/21 11:57:37;;;;;;;18.50;4.13;;;;;;;;;;4993376;28;20047;-70
2022/05/21 12:00:14;;;;;;;19.63;4.38;;;;;;;;;;4992454;28;20175;-72
2022/05/21 12:03:06;;;;;;;21.48;4.25;;;;;;;;;;4993697;28;20198;-74
2022/05/21 12:05:31;;;;;;;28.83;4.40;;;;;;;;;;4984419;28;20041;-74
2022/05/21 12:08:08;;;;;;;22.40;4.75;;;;;;;;;;4972884;28;20026;-74
2022/05/21 12:10:55;;;;;;;21.27;4.07;;;;;;;;;;4978161;28;20060;-73
2022/05/21 12:13:40;;;;;;;17.42;4.05;;;;;;;;;;4968839;28;20041;-74
2022/05/21 12:16:15;;;;;;;21.08;3.75;;;;;;;;;;4993909;28;20750;-76
2022/05/21 12:18:46;;;;;;;17.17;3.55;;;;;;;;;;4992495;28;20543;-77
2022/05/21 12:21:40;;;;;;;16.88;4.05;;;;;;;;;;5008847;28;20029;-72
2022/05/21 12:24:08;;;;;;;20.23;4.20;;;;;;;;;;4996054;28;20136;-74
2022/05/21 12:26:37;;;;;;;20.38;3.85;;;;;;;;;;4990364;28;20033;-74
2022/05/21 12:29:17;;;;;;;18.67;4.00;;;;;;;;;;4994201;28;20052;-74
2022/05/21 12:31:46;;;;;;;21.90;4.10;;;;;;;;;;4993400;28;20870;-69
2022/05/21 12:34:26;;;;;;;20.27;4.30;;;;;;;;;;4994095;28;20032;-74
2022/05/21 12:36:54;;;;;;;20.08;4.07;;;;;;;;;;4988193;28;20680;-76
2022/05/21 12:39:22;;;;;;;21.65;4.25;;;;;;;;;;4994566;28;20148;-73
2022/05/21 12:41:54;;;;;;;18.27;4.10;;;;;;;;;;4992447;28;20041;-73
2022/05/21 12:44:34;;;;;;;23.20;3.90;;;;;;;;;;4990838;28;20040;-76
2022/05/21 12:46:59;;;;;;;15.85;3.97;;;;;;;;;;4993414;28;20120;-75
2022/05/21 12:49:27;;;;;;;19.58;3.95;;;;;;;;;;4988288;28;20045;-75
2022/05/21 12:51:52;;;;;;;15.68;3.97;;;;;;;;;;4962899;28;20065;-75
2022/05/21 12:54:22;;;;;;;18.15;3.63;;;;;;;;;;4978282;28;20044;-76
2022/05/21 12:56:47;;;;;;;14.52;3.38;;;;;;;;;;4970682;28;20034;-76
2022/05/21 12:59:19;;;;;;;20.83;3.22;;;;;;;;;;4976187;28;20207;-78
2022/05/21 13:01:55;;;;;;;14.40;3.15;;;;;;;;;;4975401;28;20610;-74
2022/05/21 13:04:38;;;;;;;22.75;4.10;;;;;;;;;;4970015;28;20762;-72
2022/05/21 13:07:04;;;;;;;21.40;3.60;;;;;;;;;;4961053;28;20083;-74
2022/05/21 13:09:30;;;;;;;24.95;5.68;;;;;;;;;;4967756;28;20034;-72
2022/05/21 13:11:56;;;;;;;20.15;4.10;;;;;;;;;;4971317;28;20157;-75
2022/05/21 13:14:35;;;;;;;21.58;4.20;;;;;;;;;;4961598;28;20111;-74
2022/05/21 13:17:01;;;;;;;20.85;4.70;;;;;;;;;;4986356;28;20034;-73
2022/05/21 13:19:33;;;;;;;25.88;4.65;;;;;;;;;;4990173;28;20065;-74
2022/05/21 13:22:20;;;;;;;21.13;3.72;;;;;;;;;;4986904;28;20045;-78
2022/05/21 13:24:57;;;;;;;23.08;4.53;;;;;;;;;;4981422;28;20066;-73
2022/05/21 13:27:24;;;;;;;21.90;4.97;;;;;;;;;;5003838;28;20047;-75
2022/05/21 13:29:50;;;;;;;21.20;4.63;;;;;;;;;;4991915;28;20049;-77
2022/05/21 13:32:25;;;;;;;21.83;3.72;;;;;;;;;;4984637;28;20128;-76
2022/05/21 13:34:51;;;;;;;19.48;3.90;;;;;;;;;;4990066;28;20041;-68
2022/05/21 13:37:18;;;;;;;22.42;4.72;;;;;;;;;;4989809;28;20057;-74
2022/05/21 13:39:56;;;;;;;20.77;4.45;;;;;;;;;;4991143;28;20094;-71
2022/05/21 13:42:22;;;;;;;22.98;4.60;;;;;;;;;;4983825;28;20036;-69
2022/05/21 13:44:49;;;;;;;20.55;4.55;;;;;;;;;;4977356;28;20865;-67
2022/05/21 13:47:25;;;;;;;23.05;4.25;;;;;;;;;;4999491;28;20146;-67
2022/05/21 13:49:51;;;;;;;17.63;3.95;;;;;;;;;;4987711;28;20036;-67
2022/05/21 13:52:17;;;;;;;21.20;4.50;;;;;;;;;;5002043;28;20924;-70
2022/05/21 13:54:42;;;;;;;20.65;3.83;;;;;;;;;;4987301;28;20495;-69
2022/05/21 13:57:12;;;;;;;21.27;4.57;;;;;;;;;;4989751;28;20120;-68
2022/05/21 13:59:50;;;;;;;27.98;4.55;;;;;;;;;;4981844;28;20349;-67
2022/05/21 14:02:35;;;;;;;20.65;4.82;;;;;;;;;;5001088;28;20289;-67
2022/05/21 14:05:19;;;;;;;21.17;4.38;;;;;;;;;;4984845;28;20797;-69
2022/05/21 14:07:53;;;;;;;16.35;3.85;;;;;;;;;;4980058;28;20037;-66
2022/05/21 14:10:30;;;;;;;15.80;3.90;;;;;;;;;;4996987;28;20045;-69
2022/05/21 14:12:59;;;;;;;21.17;4.15;;;;;;;;;;4993142;28;20450;-73
2022/05/21 14:15:30;;;;;;;20.90;4.35;;;;;;;;;;5000677;28;20038;-74
2022/05/21 14:17:59;;;;;;;18.50;4.03;;;;;;;;;;4989918;28;20898;-68
2022/05/21 14:20:27;;;;;;;22.25;4.20;;;;;;;;;;4984957;28;20069;-71
2022/05/21 14:22:56;;;;;;;24.70;4.63;;;;;;;;;;4984775;28;20044;-69
2022/05/21 14:25:24;;;;;;;21.25;4.57;;;;;;;;;;4983951;28;20103;-68
2022/05/21 14:28:16;;;;;;;23.38;4.60;;;;;;;;;;4987321;28;20051;-69
2022/05/21 14:30:42;;;;;;;;;;;;;;;;;;4982050;28;20616;-73
2022/05/21 14:33:25;;;;;;;16.98;4.28;;;;;;;;;;4983964;28;19924;-71
2022/05/21 14:35:51;;;;;;;19.50;4.03;;;;;;;;;;4987166;28;20041;-70
2022/05/21 14:38:21;;;;;;;21.08;4.03;;;;;;;;;;4999451;28;22632;-68
2022/05/21 14:40:56;;;;;;;18.73;4.57;;;;;;;;;;4995152;28;20030;-78
2022/05/21 14:43:21;;;;;;;21.33;4.20;;;;;;;;;;4988439;28;20033;-74
2022/05/21 14:45:46;;;;;;;20.75;4.70;;;;;;;;;;4986045;28;22384;-77
2022/05/21 14:48:11;;;;;;;20.55;4.13;;;;;;;;;;4984587;28;20489;-76
2022/05/21 14:53:26;;;;;;;18.83;4.10;;;;;;;;;;4976376;28;20057;-75
2022/05/21 14:55:52;;;;;;;21.30;4.00;;;;;;;;;;4964773;28;25859;-75
2022/05/21 14:58:18;;;;;;;22.48;4.38;;;;;;;;;;4992414;28;20040;-74
2022/05/21 15:00:45;;;;;;;20.30;4.80;;;;;;;;;;4993387;28;20136;-74
2022/05/21 15:03:11;;;;;;;24.92;4.22;;;;;;;;;;4993998;28;20135;-73
2022/05/21 15:05:38;;;;;;;19.52;4.28;;;;;;;;;;4982579;28;21275;-74
2022/05/21 15:08:03;;;;;;;19.60;4.30;;;;;;;;;;5002579;28;20829;-72
2022/05/21 15:10:29;;;;;;;22.42;4.90;;;;;;;;;;4988931;28;20037;-72
2022/05/21 15:12:54;;;;;;;16.45;4.43;;;;;;;;;;4997874;28;20038;-72
2022/05/21 15:15:21;;;;;;;21.30;4.05;;;;;;;;;;4984347;28;20033;-72
2022/05/21 15:17:49;;;;;;;16.35;4.30;;;;;;;;;;4981210;28;20625;-74
2022/05/21 15:20:15;;;;;;;18.27;4.28;;;;;;;;;;4996050;28;20041;-73